地図

経路データ

SID SEASON NUMBER BASIN SUBBASIN NAME ISO_TIME NATURE LAT LON WMO_WIND WMO_PRES WMO_AGENCY TRACK_TYPE DIST2LAND LANDFALL IFLAG USA_AGENCY USA_ATCF_ID USA_LAT USA_LON USA_RECORD USA_STATUS USA_WIND USA_PRES USA_SSHS USA_R34_NE USA_R34_SE USA_R34_SW USA_R34_NW USA_R50_NE USA_R50_SE USA_R50_SW USA_R50_NW USA_R64_NE USA_R64_SE USA_R64_SW USA_R64_NW USA_POCI USA_ROCI USA_RMW USA_EYE TOKYO_LAT TOKYO_LON TOKYO_GRADE TOKYO_WIND TOKYO_PRES TOKYO_R50_DIR TOKYO_R50_LONG TOKYO_R50_SHORT TOKYO_R30_DIR TOKYO_R30_LONG TOKYO_R30_SHORT TOKYO_LAND CMA_LAT CMA_LON CMA_CAT CMA_WIND CMA_PRES HKO_LAT HKO_LON HKO_CAT HKO_WIND HKO_PRES NEWDELHI_LAT NEWDELHI_LON NEWDELHI_GRADE NEWDELHI_WIND NEWDELHI_PRES NEWDELHI_CI NEWDELHI_DP NEWDELHI_POCI REUNION_LAT REUNION_LON REUNION_TYPE REUNION_WIND REUNION_PRES REUNION_TNUM REUNION_CI REUNION_RMW REUNION_R34_NE REUNION_R34_SE REUNION_R34_SW REUNION_R34_NW REUNION_R50_NE REUNION_R50_SE REUNION_R50_SW REUNION_R50_NW REUNION_R64_NE REUNION_R64_SE REUNION_R64_SW REUNION_R64_NW BOM_LAT BOM_LON BOM_TYPE BOM_WIND BOM_PRES BOM_TNUM BOM_CI BOM_RMW BOM_R34_NE BOM_R34_SE BOM_R34_SW BOM_R34_NW BOM_R50_NE BOM_R50_SE BOM_R50_SW BOM_R50_NW BOM_R64_NE BOM_R64_SE BOM_R64_SW BOM_R64_NW BOM_ROCI BOM_POCI BOM_EYE BOM_POS_METHOD BOM_PRES_METHOD NADI_LAT NADI_LON NADI_CAT NADI_WIND NADI_PRES WELLINGTON_LAT WELLINGTON_LON WELLINGTON_WIND WELLINGTON_PRES DS824_LAT DS824_LON DS824_STAGE DS824_WIND DS824_PRES TD9636_LAT TD9636_LON TD9636_STAGE TD9636_WIND TD9636_PRES TD9635_LAT TD9635_LON TD9635_WIND TD9635_PRES TD9635_ROCI NEUMANN_LAT NEUMANN_LON NEUMANN_CLASS NEUMANN_WIND NEUMANN_PRES MLC_LAT MLC_LON MLC_CLASS MLC_WIND MLC_PRES USA_GUST BOM_GUST BOM_GUST_PER REUNION_GUST REUNION_GUST_PER USA_SEAHGT USA_SEARAD_NE USA_SEARAD_SE USA_SEARAD_SW USA_SEARAD_NW STORM_SPEED STORM_DIR
1997270N11265 1997 88 EP MM OLAF 1997-09-26 12:00:00 TS 11.3000 -94.6000 30 1008 hurdat_epa main 442 400 O_____________ hurdat_epa EP171997 11.3000 -94.6000 TD 30 1008 -1 9 16
1997270N11265 1997 88 EP MM OLAF 1997-09-26 15:00:00 TS 11.7425 -94.4726 main 400 350 P_____________ EP171997 11.7425 -94.4726 TD 35 1006 0 9 12
1997270N11265 1997 88 EP MM OLAF 1997-09-26 18:00:00 TS 12.2000 -94.4000 40 1005 hurdat_epa main 350 318 O_____________ hurdat_epa EP171997 12.2000 -94.4000 TS 40 1005 0 9 3
1997270N11265 1997 88 EP MM OLAF 1997-09-26 21:00:00 TS 12.6725 -94.4199 main 311 287 P_____________ EP171997 12.6725 -94.4199 TS 42 1002 0 9 354
1997270N11265 1997 88 EP MM OLAF 1997-09-27 00:00:00 TS 13.1000 -94.5000 45 1000 hurdat_epa main 287 271 O_____________ hurdat_epa EP171997 13.1000 -94.5000 TS 45 1000 0 8 347
1997270N11265 1997 88 EP MM OLAF 1997-09-27 03:00:00 TS 13.4375 -94.6000 main 271 256 P_____________ EP171997 13.4375 -94.6000 TS 50 997 0 6 342
1997270N11265 1997 88 EP MM OLAF 1997-09-27 06:00:00 TS 13.7000 -94.7000 55 995 hurdat_epa main 256 243 O_____________ hurdat_epa EP171997 13.7000 -94.7000 TS 55 995 0 5 341
1997270N11265 1997 88 EP MM OLAF 1997-09-27 09:00:00 TS 13.9150 -94.7650 main 243 222 P_____________ EP171997 13.9150 -94.7650 TS 55 992 0 4 347
1997270N11265 1997 88 EP MM OLAF 1997-09-27 12:00:00 TS 14.1000 -94.8000 55 990 hurdat_epa main 222 200 O_____________ hurdat_epa EP171997 14.1000 -94.8000 TS 55 990 0 4 351
1997270N11265 1997 88 EP MM OLAF 1997-09-27 15:00:00 TS 14.3000 -94.8225 main 200 179 P_____________ EP171997 14.3000 -94.8225 TS 57 989 0 4 0
1997270N11265 1997 88 EP MM OLAF 1997-09-27 18:00:00 TS 14.5000 -94.8000 60 989 hurdat_epa main 179 162 O_____________ hurdat_epa EP171997 14.5000 -94.8000 TS 60 989 0 4 15
1997270N11265 1997 88 EP MM OLAF 1997-09-27 21:00:00 TS 14.7000 -94.7076 main 162 138 P_____________ EP171997 14.7000 -94.7076 TS 60 989 0 4 26
1997270N11265 1997 88 EP MM OLAF 1997-09-28 00:00:00 TS 14.9000 -94.6000 60 990 hurdat_epa main 138 113 O_____________ hurdat_epa EP171997 14.9000 -94.6000 TS 60 990 0 4 23
1997270N11265 1997 88 EP MM OLAF 1997-09-28 03:00:00 TS 15.1075 -94.5275 main 113 92 P_____________ EP171997 15.1075 -94.5275 TS 57 992 0 4 13
1997270N11265 1997 88 EP MM OLAF 1997-09-28 06:00:00 TS 15.3000 -94.5000 55 994 hurdat_epa main 92 81 O_____________ hurdat_epa EP171997 15.3000 -94.5000 TS 55 994 0 4 0
1997270N11265 1997 88 EP MM OLAF 1997-09-28 09:00:00 TS 15.4575 -94.5350 main 70 64 P_____________ EP171997 15.4575 -94.5350 TS 52 995 0 3 343
1997270N11265 1997 88 EP MM OLAF 1997-09-28 12:00:00 TS 15.6000 -94.6000 50 996 hurdat_epa main 64 55 O_____________ hurdat_epa EP171997 15.6000 -94.6000 TS 50 996 0 3 341
1997270N11265 1997 88 EP MM OLAF 1997-09-28 15:00:00 TS 15.7500 -94.6350 main 55 33 P_____________ EP171997 15.7500 -94.6350 TS 47 998 0 3 343
1997270N11265 1997 88 EP MM OLAF 1997-09-28 18:00:00 TS 15.9000 -94.7000 45 1000 hurdat_epa main 33 11 O_____________ hurdat_epa EP171997 15.9000 -94.7000 TS 45 1000 0 4 333
1997270N11265 1997 88 EP MM OLAF 1997-09-28 21:00:00 TS 16.0724 -94.8050 main 11 0 P_____________ EP171997 16.0724 -94.8050 TS 37 1002 0 4 316
1997270N11265 1997 88 EP MM OLAF 1997-09-29 00:00:00 TS 16.2000 -95.0000 30 1005 hurdat_epa main 0 0 O_____________ hurdat_epa EP171997 16.2000 -95.0000 L TD 30 1005 -1 6 287
1997270N11265 1997 88 EP MM OLAF 1997-09-29 03:00:00 TS 16.2302 -95.3576 main 0 0 P_____________ EP171997 16.2302 -95.3576 TD 27 1007 -1 7 270
1997270N11265 1997 88 EP MM OLAF 1997-09-29 06:00:00 TS 16.2000 -95.7000 25 1009 hurdat_epa main 0 0 O_____________ hurdat_epa EP171997 16.2000 -95.7000 TD 25 1009 -1 4 260
1997270N11265 1997 88 EP MM OLAF 1997-09-29 09:00:00 TS 16.1573 -95.8075 main 0 0 P_____________ EP171997 16.1573 -95.8075 TD 25 1009 -1 2 243
1997270N11265 1997 88 EP MM OLAF 1997-09-29 12:00:00 TS 16.1000 -95.9000 25 1009 hurdat_epa main 0 0 O_____________ hurdat_epa EP171997 16.1000 -95.9000 TD 25 1009 -1 4 253
1997270N11265 1997 88 EP MM OLAF 1997-09-29 15:00:00 TS 16.0501 -96.1700 main 0 0 P_____________ EP171997 16.0501 -96.1700 TD 25 1009 -1 6 260
1997270N11265 1997 88 EP MM OLAF 1997-09-29 18:00:00 TS 16.0000 -96.5000 25 1009 hurdat_epa main 0 0 O_____________ hurdat_epa EP171997 16.0000 -96.5000 TD 25 1009 -1 6 260
1997270N11265 1997 88 EP MM OLAF 1997-09-29 21:00:00 TS 15.9499 -96.7925 main 0 0 P_____________ EP171997 15.9499 -96.7925 TD 25 1009 -1 6 260
1997270N11265 1997 88 EP MM OLAF 1997-09-30 00:00:00 TS 15.9000 -97.1000 25 1009 hurdat_epa main 0 0 O_____________ hurdat_epa EP171997 15.9000 -97.1000 TD 25 1009 -1 6 261
1997270N11265 1997 88 EP MM OLAF 1997-09-30 03:00:00 TS 15.8499 -97.4350 main 22 22 P_____________ EP171997 15.8499 -97.4350 TD 25 1009 -1 7 262
1997270N11265 1997 88 EP MM OLAF 1997-09-30 06:00:00 TS 15.8000 -97.8000 25 1009 hurdat_epa main 22 22 O_____________ hurdat_epa EP171997 15.8000 -97.8000 TD 25 1009 -1 7 262
1997270N11265 1997 88 EP MM OLAF 1997-09-30 09:00:00 TS 15.7500 -98.1925 main 54 54 P_____________ EP171997 15.7500 -98.1925 TD 25 1009 -1 8 263
1997270N11265 1997 88 EP MM OLAF 1997-09-30 12:00:00 TS 15.7000 -98.6000 25 1009 hurdat_epa main 67 67 O_____________ hurdat_epa EP171997 15.7000 -98.6000 TD 25 1009 -1 8 263
1997270N11265 1997 88 EP MM OLAF 1997-09-30 15:00:00 TS 15.6499 -98.9925 main 89 89 P_____________ EP171997 15.6499 -98.9925 TD 25 1009 -1 8 263
1997270N11265 1997 88 EP MM OLAF 1997-09-30 18:00:00 TS 15.6000 -99.4000 25 1009 hurdat_epa main 116 116 O_____________ hurdat_epa EP171997 15.6000 -99.4000 TD 25 1009 -1 8 262
1997270N11265 1997 88 EP MM OLAF 1997-09-30 21:00:00 TS 15.5424 -99.8350 main 134 134 P_____________ EP171997 15.5424 -99.8350 TD 25 1009 -1 9 263
1997270N11265 1997 88 EP MM OLAF 1997-10-01 00:00:00 TS 15.5000 -100.300 25 1009 hurdat_epa main 148 148 O_____________ hurdat_epa EP171997 15.5000 -100.300 TD 25 1009 -1 9 267
1997270N11265 1997 88 EP MM OLAF 1997-10-01 03:00:00 TS 15.4999 -100.792 main 178 178 P_____________ EP171997 15.4999 -100.792 TD 25 1009 -1 10 270
1997270N11265 1997 88 EP MM OLAF 1997-10-01 06:00:00 TS 15.5000 -101.300 25 1009 hurdat_epa main 197 197 O_____________ hurdat_epa EP171997 15.5000 -101.300 TD 25 1009 -1 10 267
1997270N11265 1997 88 EP MM OLAF 1997-10-01 09:00:00 TS 15.4573 -101.785 main 214 214 P_____________ EP171997 15.4573 -101.785 TD 25 1009 -1 10 264
1997270N11265 1997 88 EP MM OLAF 1997-10-01 12:00:00 TS 15.4000 -102.300 25 1009 hurdat_epa main 248 248 O_____________ hurdat_epa EP171997 15.4000 -102.300 TD 25 1009 -1 11 264
1997270N11265 1997 88 EP MM OLAF 1997-10-01 15:00:00 TS 15.3500 -102.885 main 295 295 P_____________ EP171997 15.3500 -102.885 TD 25 1009 -1 12 265
1997270N11265 1997 88 EP MM OLAF 1997-10-01 18:00:00 TS 15.3000 -103.500 25 1009 hurdat_epa main 317 317 O_____________ hurdat_epa EP171997 15.3000 -103.500 TD 25 1009 -1 12 265
1997270N11265 1997 88 EP MM OLAF 1997-10-01 21:00:00 TS 15.2423 -104.093 main 348 348 P_____________ EP171997 15.2423 -104.093 TD 25 1009 -1 12 265
1997270N11265 1997 88 EP MM OLAF 1997-10-02 00:00:00 TS 15.2000 -104.700 25 1009 hurdat_epa main 369 369 O_____________ hurdat_epa EP171997 15.2000 -104.700 TD 25 1009 -1 12 268
1997270N11265 1997 88 EP MM OLAF 1997-10-02 03:00:00 TS 15.1999 -105.342 main 396 396 P_____________ EP171997 15.1999 -105.342 TD 25 1009 -1 13 270
1997270N11265 1997 88 EP MM OLAF 1997-10-02 06:00:00 TS 15.2000 -106.000 25 1009 hurdat_epa main 437 437 O_____________ hurdat_epa EP171997 15.2000 -106.000 TD 25 1009 -1 13 268
1997270N11265 1997 88 EP MM OLAF 1997-10-02 09:00:00 TS 15.1498 -106.650 main 494 494 P_____________ EP171997 15.1498 -106.650 TD 25 1009 -1 13 265
1997270N11265 1997 88 EP MM OLAF 1997-10-02 12:00:00 TS 15.1000 -107.300 25 1009 hurdat_epa main 530 530 O_____________ hurdat_epa EP171997 15.1000 -107.300 TD 25 1009 -1 13 267
1997270N11265 1997 88 EP MM OLAF 1997-10-02 15:00:00 TS 15.0922 -107.942 main 564 564 P_____________ EP171997 15.0922 -107.942 TD 25 1009 -1 13 270
1997270N11265 1997 88 EP MM OLAF 1997-10-02 18:00:00 TS 15.1000 -108.600 25 1009 hurdat_epa main 611 611 O_____________ hurdat_epa EP171997 15.1000 -108.600 TD 25 1009 -1 13 270
1997270N11265 1997 88 EP MM OLAF 1997-10-02 21:00:00 TS 15.0999 -109.293 main 662 662 P_____________ EP171997 15.0999 -109.293 TD 25 1009 -1 14 270
1997270N11265 1997 88 EP MM OLAF 1997-10-03 00:00:00 TS 15.1000 -110.000 25 1009 hurdat_epa main 716 716 O_____________ hurdat_epa EP171997 15.1000 -110.000 TD 25 1009 -1 14 270
1997270N11265 1997 88 EP MM OLAF 1997-10-03 03:00:00 TS 15.0924 -110.715 main 770 770 P_____________ EP171997 15.0924 -110.715 TD 25 1009 -1 14 270
1997270N11265 1997 88 EP MM OLAF 1997-10-03 06:00:00 TS 15.1000 -111.400 25 1009 hurdat_epa main 826 826 O_____________ hurdat_epa EP171997 15.1000 -111.400 TD 25 1009 -1 13 272
1997270N11265 1997 88 EP MM OLAF 1997-10-03 09:00:00 TS 15.1348 -112.023 main 877 877 P_____________ EP171997 15.1348 -112.023 TD 25 1009 -1 12 275
1997270N11265 1997 88 EP MM OLAF 1997-10-03 12:00:00 TS 15.2000 -112.600 25 1009 hurdat_epa main 903 903 O_____________ hurdat_epa EP171997 15.2000 -112.600 TD 25 1009 -1 11 277
1997270N11265 1997 88 EP MM OLAF 1997-10-03 15:00:00 TS 15.2775 -113.195 main 914 914 P_____________ EP171997 15.2775 -113.195 TD 25 1009 -1 11 281
1997270N11265 1997 88 EP MM OLAF 1997-10-03 18:00:00 TS 15.4000 -113.700 25 1009 hurdat_epa main 924 918 O_____________ hurdat_epa EP171997 15.4000 -113.700 TD 25 1009 -1 9 291
1997270N11265 1997 88 EP MM OLAF 1997-10-03 21:00:00 TS 15.5848 -114.045 main 918 908 P_____________ EP171997 15.5848 -114.045 TD 25 1009 -1 7 305
1997270N11265 1997 88 EP MM OLAF 1997-10-04 00:00:00 TS 15.8000 -114.300 25 1009 hurdat_epa main 913 904 O_____________ hurdat_epa EP171997 15.8000 -114.300 TD 25 1009 -1 7 312
1997270N11265 1997 88 EP MM OLAF 1997-10-04 03:00:00 TS 16.0224 -114.550 main 909 896 P_____________ EP171997 16.0224 -114.550 TD 25 1009 -1 6 310
1997270N11265 1997 88 EP MM OLAF 1997-10-04 06:00:00 TS 16.2000 -114.800 25 1009 hurdat_epa main 902 902 O_____________ hurdat_epa EP171997 16.2000 -114.800 TD 25 1009 -1 6 295
1997270N11265 1997 88 EP MM OLAF 1997-10-04 09:00:00 TS 16.2725 -115.100 main 911 911 P_____________ EP171997 16.2725 -115.100 TD 25 1009 -1 6 280
1997270N11265 1997 88 EP MM OLAF 1997-10-04 12:00:00 TS 16.3000 -115.400 25 1009 hurdat_epa main 929 929 O_____________ hurdat_epa EP171997 16.3000 -115.400 TD 25 1009 -1 5 278
1997270N11265 1997 88 EP MM OLAF 1997-10-04 15:00:00 TS 16.3499 -115.658 main 949 940 P_____________ EP171997 16.3499 -115.658 TD 25 1009 -1 5 282
1997270N11265 1997 88 EP MM OLAF 1997-10-04 18:00:00 TS 16.4000 -115.900 25 1009 hurdat_epa main 953 953 O_____________ hurdat_epa EP171997 16.4000 -115.900 TD 25 1009 -1 5 283
1997270N11265 1997 88 EP MM OLAF 1997-10-04 21:00:00 TS 16.4575 -116.157 main 965 965 P_____________ EP171997 16.4575 -116.157 TD 25 1009 -1 5 282
1997270N11265 1997 88 EP MM OLAF 1997-10-05 00:00:00 TS 16.5000 -116.400 25 1009 hurdat_epa main 980 980 O_____________ hurdat_epa EP171997 16.5000 -116.400 TD 25 1009 -1 5 276
1997270N11265 1997 88 EP MM OLAF 1997-10-05 03:00:00 TS 16.5075 -116.653 main 1001 1001 P_____________ EP171997 16.5075 -116.653 TD 25 1009 -1 4 270
1997270N11265 1997 88 EP MM OLAF 1997-10-05 06:00:00 TS 16.5000 -116.800 25 1009 hurdat_epa main 1009 1009 O_____________ hurdat_epa EP171997 16.5000 -116.800 TD 25 1009 -1 1 263
1997270N11265 1997 88 EP MM OLAF 1997-10-05 09:00:00 TS 16.4924 -116.782 main 1009 994 P_____________ EP171997 16.4924 -116.782 TD 25 1008 -1 2 90
1997270N11265 1997 88 EP MM OLAF 1997-10-05 12:00:00 TS 16.5000 -116.600 25 1007 hurdat_epa main 994 964 O_____________ hurdat_epa EP171997 16.5000 -116.600 TD 25 1007 -1 5 82
1997270N11265 1997 88 EP MM OLAF 1997-10-05 15:00:00 TS 16.5576 -116.280 main 964 936 P_____________ EP171997 16.5576 -116.280 TD 27 1006 -1 7 82
1997270N11265 1997 88 EP MM OLAF 1997-10-05 18:00:00 TS 16.6000 -115.900 30 1005 hurdat_epa main 936 916 O_____________ hurdat_epa EP171997 16.6000 -115.900 TD 30 1005 -1 7 89
1997270N11265 1997 88 EP MM OLAF 1997-10-05 21:00:00 TS 16.5650 -115.585 main 916 905 P_____________ EP171997 16.5650 -115.585 TD 30 1005 -1 6 100
1997270N11265 1997 88 EP MM OLAF 1997-10-06 00:00:00 TS 16.5000 -115.300 30 1005 hurdat_epa main 905 892 O_____________ hurdat_epa EP171997 16.5000 -115.300 TD 30 1005 -1 5 102
1997270N11265 1997 88 EP MM OLAF 1997-10-06 03:00:00 TS 16.4574 -115.043 main 886 883 P_____________ EP171997 16.4574 -115.043 TD 30 1005 -1 5 102
1997270N11265 1997 88 EP MM OLAF 1997-10-06 06:00:00 TS 16.4000 -114.800 30 1005 hurdat_epa main 883 877 O_____________ hurdat_epa EP171997 16.4000 -114.800 TD 30 1005 -1 5 108
1997270N11265 1997 88 EP MM OLAF 1997-10-06 09:00:00 TS 16.3075 -114.550 main 881 870 P_____________ EP171997 16.3075 -114.550 TD 30 1005 -1 5 113
1997270N11265 1997 88 EP MM OLAF 1997-10-06 12:00:00 TS 16.2000 -114.300 30 1005 hurdat_epa main 874 868 O_____________ hurdat_epa EP171997 16.2000 -114.300 TD 30 1005 -1 5 113
1997270N11265 1997 88 EP MM OLAF 1997-10-06 15:00:00 TS 16.1000 -114.050 main 873 863 P_____________ EP171997 16.1000 -114.050 TD 30 1005 -1 5 113
1997270N11265 1997 88 EP MM OLAF 1997-10-06 18:00:00 TS 16.0000 -113.800 30 1005 hurdat_epa main 868 863 O_____________ hurdat_epa EP171997 16.0000 -113.800 TD 30 1005 -1 5 113
1997270N11265 1997 88 EP MM OLAF 1997-10-06 21:00:00 TS 15.8925 -113.535 main 864 860 P_____________ EP171997 15.8925 -113.535 TD 30 1005 -1 5 113
1997270N11265 1997 88 EP MM OLAF 1997-10-07 00:00:00 TS 15.8000 -113.300 30 1005 hurdat_epa main 866 862 O_____________ hurdat_epa EP171997 15.8000 -113.300 TD 30 1005 -1 4 113
1997270N11265 1997 88 EP MM OLAF 1997-10-07 03:00:00 TS 15.7349 -113.150 main 872 864 P_____________ EP171997 15.7349 -113.150 TD 30 1005 -1 3 109
1997270N11265 1997 88 EP MM OLAF 1997-10-07 06:00:00 TS 15.7000 -113.000 30 1005 hurdat_epa main 864 857 O_____________ hurdat_epa EP171997 15.7000 -113.000 TD 30 1005 -1 4 95
1997270N11265 1997 88 EP MM OLAF 1997-10-07 09:00:00 TS 15.7000 -112.773 main 857 846 P_____________ EP171997 15.7000 -112.773 TD 30 1005 -1 5 90
1997270N11265 1997 88 EP MM OLAF 1997-10-07 12:00:00 TS 15.7000 -112.500 30 1005 hurdat_epa main 846 837 O_____________ hurdat_epa EP171997 15.7000 -112.500 TD 30 1005 -1 5 93
1997270N11265 1997 88 EP MM OLAF 1997-10-07 15:00:00 TS 15.6724 -112.223 main 837 834 P_____________ EP171997 15.6724 -112.223 TD 30 1005 -1 6 100
1997270N11265 1997 88 EP MM OLAF 1997-10-07 18:00:00 TS 15.6000 -111.900 30 1005 hurdat_epa main 836 807 O_____________ hurdat_epa EP171997 15.6000 -111.900 TD 30 1005 -1 7 107
1997270N11265 1997 88 EP MM OLAF 1997-10-07 21:00:00 TS 15.4725 -111.523 main 807 787 P_____________ EP171997 15.4725 -111.523 TD 30 1005 -1 8 111
1997270N11265 1997 88 EP MM OLAF 1997-10-08 00:00:00 TS 15.3000 -111.100 30 1005 hurdat_epa main 787 770 O_____________ hurdat_epa EP171997 15.3000 -111.100 TD 30 1005 -1 9 113
1997270N11265 1997 88 EP MM OLAF 1997-10-08 03:00:00 TS 15.1150 -110.658 main 770 747 P_____________ EP171997 15.1150 -110.658 TD 30 1005 -1 10 115
1997270N11265 1997 88 EP MM OLAF 1997-10-08 06:00:00 TS 14.9000 -110.200 30 1005 hurdat_epa main 747 732 O_____________ hurdat_epa EP171997 14.9000 -110.200 TD 30 1005 -1 10 117
1997270N11265 1997 88 EP MM OLAF 1997-10-08 09:00:00 TS 14.6649 -109.750 main 732 718 P_____________ EP171997 14.6649 -109.750 TD 30 1005 -1 10 120
1997270N11265 1997 88 EP MM OLAF 1997-10-08 12:00:00 TS 14.4000 -109.300 30 1005 hurdat_epa main 719 709 O_____________ hurdat_epa EP171997 14.4000 -109.300 TD 30 1005 -1 10 122
1997270N11265 1997 88 EP MM OLAF 1997-10-08 15:00:00 TS 14.1075 -108.843 main 712 708 P_____________ EP171997 14.1075 -108.843 TD 30 1005 -1 11 124
1997270N11265 1997 88 EP MM OLAF 1997-10-08 18:00:00 TS 13.8000 -108.400 30 1005 hurdat_epa main 715 714 O_____________ hurdat_epa EP171997 13.8000 -108.400 TD 30 1005 -1 10 126
1997270N11265 1997 88 EP MM OLAF 1997-10-08 21:00:00 TS 13.4999 -107.993 main 721 714 P_____________ EP171997 13.4999 -107.993 TD 30 1005 -1 10 128
1997270N11265 1997 88 EP MM OLAF 1997-10-09 00:00:00 TS 13.2000 -107.600 30 1005 hurdat_epa main 719 716 O_____________ hurdat_epa EP171997 13.2000 -107.600 TD 30 1005 -1 10 128
1997270N11265 1997 88 EP MM OLAF 1997-10-09 03:00:00 TS 12.8925 -107.193 main 722 716 P_____________ EP171997 12.8925 -107.193 TD 30 1005 -1 10 128
1997270N11265 1997 88 EP MM OLAF 1997-10-09 06:00:00 TS 12.6000 -106.800 30 1005 hurdat_epa main 729 724 O_____________ hurdat_epa EP171997 12.6000 -106.800 TD 30 1005 -1 9 128
1997270N11265 1997 88 EP MM OLAF 1997-10-09 09:00:00 TS 12.3199 -106.443 main 740 735 P_____________ EP171997 12.3199 -106.443 TD 30 1005 -1 9 126
1997270N11265 1997 88 EP MM OLAF 1997-10-09 12:00:00 TS 12.1000 -106.100 30 1005 hurdat_epa main 747 744 O_____________ hurdat_epa EP171997 12.1000 -106.100 TD 30 1005 -1 8 119
1997270N11265 1997 88 EP MM OLAF 1997-10-09 15:00:00 TS 11.9400 -105.735 main 754 743 P_____________ EP171997 11.9400 -105.735 TD 30 1005 -1 7 106
1997270N11265 1997 88 EP MM OLAF 1997-10-09 18:00:00 TS 11.9000 -105.400 30 1005 hurdat_epa main 743 722 O_____________ hurdat_epa EP171997 11.9000 -105.400 TD 30 1005 -1 6 85
1997270N11265 1997 88 EP MM OLAF 1997-10-09 21:00:00 TS 11.9900 -105.128 main 722 694 P_____________ EP171997 11.9900 -105.128 TD 30 1005 -1 6 58
1997270N11265 1997 88 EP MM OLAF 1997-10-10 00:00:00 TS 12.2000 -104.900 30 1005 hurdat_epa main 694 655 O_____________ hurdat_epa EP171997 12.2000 -104.900 TD 30 1005 -1 7 41
1997270N11265 1997 88 EP MM OLAF 1997-10-10 03:00:00 TS 12.4775 -104.692 main 655 616 P_____________ EP171997 12.4775 -104.692 TD 30 1005 -1 7 33
1997270N11265 1997 88 EP MM OLAF 1997-10-10 06:00:00 TS 12.8000 -104.500 30 1005 hurdat_epa main 616 577 O_____________ hurdat_epa EP171997 12.8000 -104.500 TD 30 1005 -1 7 33
1997270N11265 1997 88 EP MM OLAF 1997-10-10 09:00:00 TS 13.0925 -104.285 main 577 539 P_____________ EP171997 13.0925 -104.285 TD 30 1005 -1 7 33
1997270N11265 1997 88 EP MM OLAF 1997-10-10 12:00:00 TS 13.4000 -104.100 30 1005 hurdat_epa main 539 504 O_____________ hurdat_epa EP171997 13.4000 -104.100 TD 30 1005 -1 7 26
1997270N11265 1997 88 EP MM OLAF 1997-10-10 15:00:00 TS 13.6975 -103.977 main 504 458 P_____________ EP171997 13.6975 -103.977 TD 30 1005 -1 7 15
1997270N11265 1997 88 EP MM OLAF 1997-10-10 18:00:00 TS 14.1000 -103.900 30 1005 hurdat_epa main 458 390 O_____________ hurdat_epa EP171997 14.1000 -103.900 TD 30 1005 -1 11 8
1997270N11265 1997 88 EP MM OLAF 1997-10-10 21:00:00 TS 14.7575 -103.820 main 380 316 P_____________ EP171997 14.7575 -103.820 TD 30 1005 -1 13 4
1997270N11265 1997 88 EP MM OLAF 1997-10-11 00:00:00 TS 15.4000 -103.800 30 1005 hurdat_epa main 316 288 O_____________ hurdat_epa EP171997 15.4000 -103.800 TD 30 1005 -1 10 356
1997270N11265 1997 88 EP MM OLAF 1997-10-11 03:00:00 TS 15.7450 -103.892 main 288 260 P_____________ EP171997 15.7450 -103.892 TD 30 1005 -1 6 342
1997270N11265 1997 88 EP MM OLAF 1997-10-11 06:00:00 TS 16.0000 -104.000 30 1005 hurdat_epa main 260 228 O_____________ hurdat_epa EP171997 16.0000 -104.000 TD 30 1005 -1 6 349
1997270N11265 1997 88 EP MM OLAF 1997-10-11 09:00:00 TS 16.3500 -104.015 main 228 186 P_____________ EP171997 16.3500 -104.015 TD 30 1005 -1 7 0
1997270N11265 1997 88 EP MM OLAF 1997-10-11 12:00:00 TS 16.7000 -104.000 30 1005 hurdat_epa main 186 154 O_____________ hurdat_epa EP171997 16.7000 -104.000 TD 30 1005 -1 7 2
1997270N11265 1997 88 EP MM OLAF 1997-10-11 15:00:00 TS 17.0150 -104.000 main 154 123 P_____________ EP171997 17.0150 -104.000 TD 30 1005 -1 6 1
1997270N11265 1997 88 EP MM OLAF 1997-10-11 18:00:00 TS 17.3000 -104.000 30 1005 hurdat_epa main 123 94 O_____________ hurdat_epa EP171997 17.3000 -104.000 TD 30 1005 -1 6 0
1997270N11265 1997 88 EP MM OLAF 1997-10-11 21:00:00 TS 17.5650 -104.000 main 94 76 P_____________ EP171997 17.5650 -104.000 TD 30 1005 -1 5 2
1997270N11265 1997 88 EP MM OLAF 1997-10-12 00:00:00 TS 17.8000 -104.000 30 1005 hurdat_epa main 76 62 O_____________ hurdat_epa EP171997 17.8000 -104.000 TD 30 1005 -1 4 2
1997270N11265 1997 88 EP MM OLAF 1997-10-12 03:00:00 TS 18.0000 -104.000 main 62 53 P_____________ EP171997 18.0000 -104.000 TD 30 1005 -1 4 0
1997270N11265 1997 88 EP MM OLAF 1997-10-12 06:00:00 TS 18.2000 -104.000 30 1005 hurdat_epa main 53 43 O_____________ hurdat_epa EP171997 18.2000 -104.000 TD 30 1005 -1 5 3
1997270N11265 1997 88 EP MM OLAF 1997-10-12 09:00:00 TS 18.4575 -103.985 main 38 22 P_____________ EP171997 18.4575 -103.985 TD 30 1005 -1 5 358
1997270N11265 1997 88 EP MM OLAF 1997-10-12 12:00:00 TS 18.7000 -104.000 30 1005 hurdat_epa main 22 10 O_____________ hurdat_epa EP171997 18.7000 -104.000 TD 30 1005 -1 4 348
1997270N11265 1997 88 EP MM OLAF 1997-10-12 15:00:00 TS 18.8725 -104.080 main 10 0 P_____________ EP171997 18.8725 -104.080 TD 27 1007 -1 4 328
1997270N11265 1997 88 EP MM OLAF 1997-10-12 18:00:00 TS 19.0000 -104.200 25 1009 hurdat_epa main 0 O_____________ hurdat_epa EP171997 19.0000 -104.200 L TD 25 1009 -1 3 319

IBTrACS Databaseについて

本データベースは、米国NOAAが公開する1842年以降の世界の熱帯低気圧のベストトラックデータアーカイブInternational Best Track Archive for Climate Stewardship (IBTrACS)を、ウェブで閲覧しやすい形式に変換したものです。

最終更新日:2021-12-01